Campbell Hall, New York
Current Conditions -  °F | °C
As of 7:54 AM on Thursday 27 Nov 2014 (Local Time) from KMGJ Reporting Station
Haze Haze  
Wind Chill: 30°   Ceiling: 7000
Heat Index: 30°   Visibility: 4mi
Dew Point: 29°   Wind: 0mph
Humidity: 96%   Direction: NA
Pressure: 29.96"   Gusts: NA
Location:  41.46°N, 74.26°W
Report Text: KMGJ 271254Z AUTO 00000KT 4SM BR BKN070 OVC080 M01/M02 A2996 RMK AO2 UPE17 SLP147 P0000 T10111017 TSNO $
Loading
Personal Weather Stations






























Interactive Weather Map New forecast layout! Learn more

10-Day Weather Forecast

Advertisements
Track Severe Weather on mobile